createdAt,value
2022-08-01T00:02:15.145Z,22.7
2022-08-01T00:05:27.294Z,22.6
2022-08-01T00:08:39.440Z,22.6
2022-08-01T00:11:51.598Z,22.6
2022-08-01T00:15:03.739Z,22.6
2022-08-01T00:18:15.912Z,22.6
2022-08-01T00:21:27.071Z,22.6
2022-08-01T00:24:38.236Z,22.6
2022-08-01T00:27:50.397Z,22.6
2022-08-01T00:31:02.557Z,22.5
2022-08-01T00:34:14.696Z,22.6
2022-08-01T00:37:26.844Z,22.5
2022-08-01T00:40:39.004Z,22.5
2022-08-01T00:43:51.146Z,22.4
2022-08-01T00:47:03.299Z,22.3
2022-08-01T00:50:15.458Z,22.4
2022-08-01T00:53:27.605Z,22.4
2022-08-01T00:56:39.766Z,22.3
2022-08-01T00:59:51.909Z,22.3
2022-08-01T01:03:04.065Z,22.2
2022-08-01T01:06:15.242Z,22.2
2022-08-01T01:09:27.395Z,22.2
2022-08-01T01:12:39.527Z,22.2
2022-08-01T01:15:51.697Z,22.2
2022-08-01T01:19:03.829Z,22.2
2022-08-01T01:22:16.000Z,22.2
2022-08-01T01:25:28.149Z,22.1
2022-08-01T01:28:39.324Z,22
2022-08-01T01:31:50.501Z,22
2022-08-01T01:35:01.677Z,22
2022-08-01T01:38:12.834Z,21.9
2022-08-01T01:41:24.993Z,21.9
2022-08-01T01:44:37.142Z,21.9
2022-08-01T01:47:49.289Z,21.8
2022-08-01T01:51:01.440Z,21.8
2022-08-01T01:54:13.600Z,21.8
2022-08-01T01:57:25.738Z,21.7
2022-08-01T02:00:37.895Z,21.7
2022-08-01T02:03:50.055Z,21.7
2022-08-01T02:10:14.400Z,21.7
2022-08-01T02:13:26.548Z,21.6
2022-08-01T02:16:38.691Z,21.6
2022-08-01T02:19:49.855Z,21.6
2022-08-01T02:23:02.026Z,21.5
2022-08-01T02:26:14.177Z,21.6
2022-08-01T02:29:26.329Z,21.5
2022-08-01T02:32:38.472Z,21.6
2022-08-01T02:35:50.616Z,21.5
2022-08-01T02:39:02.778Z,21.5
2022-08-01T02:42:14.937Z,21.5
2022-08-01T02:45:26.106Z,21.5
2022-08-01T02:48:37.268Z,21.5
2022-08-01T02:51:48.461Z,21.5
2022-08-01T02:54:59.616Z,21.5
2022-08-01T02:58:10.800Z,21.4
2022-08-01T03:01:21.974Z,21.4
2022-08-01T03:04:34.116Z,21.3
2022-08-01T03:07:46.263Z,21.3
2022-08-01T03:10:58.425Z,21.3
2022-08-01T03:14:10.576Z,21.4
2022-08-01T03:17:22.719Z,21.4
2022-08-01T03:20:34.885Z,21.3
2022-08-01T03:23:47.026Z,21.3
2022-08-01T03:26:59.188Z,21.3
2022-08-01T03:30:11.330Z,21.3
2022-08-01T03:33:23.493Z,21.2
2022-08-01T03:36:35.645Z,21.1
2022-08-01T03:39:47.799Z,21.1
2022-08-01T03:42:58.959Z,21.1
2022-08-01T03:46:11.099Z,21.1
2022-08-01T03:49:23.265Z,21.1
2022-08-01T03:52:35.399Z,21.1
2022-08-01T03:55:47.564Z,21.2
2022-08-01T03:58:59.714Z,21.2
2022-08-01T04:02:11.867Z,21.1
2022-08-01T04:05:23.039Z,21.1
2022-08-01T04:08:34.215Z,21.1
2022-08-01T04:11:46.365Z,21.1
2022-08-01T04:14:58.506Z,21.2
2022-08-01T04:18:10.664Z,21.1
2022-08-01T04:21:22.809Z,21.1
2022-08-01T04:24:34.967Z,21
2022-08-01T04:27:47.106Z,20.9
2022-08-01T04:30:59.270Z,20.9
2022-08-01T04:34:11.420Z,20.9
2022-08-01T04:37:23.551Z,20.8
2022-08-01T04:40:35.707Z,20.8
2022-08-01T04:43:47.855Z,20.8
2022-08-01T04:47:00.005Z,20.8
2022-08-01T04:50:11.173Z,20.8
2022-08-01T04:53:23.326Z,20.8
2022-08-01T04:56:35.470Z,20.8
2022-08-01T04:59:47.628Z,20.8
2022-08-01T05:02:59.771Z,20.8
2022-08-01T05:06:11.928Z,20.8
2022-08-01T05:12:35.251Z,20.8
2022-08-01T05:15:46.413Z,20.8
2022-08-01T05:18:57.588Z,20.8
2022-08-01T05:22:08.763Z,20.8
2022-08-01T05:25:19.934Z,20.8
2022-08-01T05:28:31.101Z,20.8
2022-08-01T05:31:43.257Z,20.8
2022-08-01T05:34:55.399Z,20.8
2022-08-01T05:38:07.549Z,20.8
2022-08-01T05:41:19.699Z,20.8
2022-08-01T05:44:31.856Z,20.8
2022-08-01T05:47:43.995Z,20.7
2022-08-01T05:50:56.148Z,20.7
2022-08-01T05:54:08.309Z,20.8
2022-08-01T05:57:20.458Z,20.8
2022-08-01T06:00:32.613Z,20.8
2022-08-01T06:03:44.748Z,20.9
2022-08-01T06:06:56.915Z,20.9
2022-08-01T06:10:08.068Z,20.9
2022-08-01T06:13:20.220Z,20.8
2022-08-01T06:16:32.370Z,20.7
2022-08-01T06:19:44.521Z,20.7
2022-08-01T06:22:56.679Z,20.7
2022-08-01T06:26:08.814Z,20.7
2022-08-01T06:29:20.969Z,20.6
2022-08-01T06:32:32.150Z,20.6
2022-08-01T06:35:43.307Z,20.5
2022-08-01T06:38:55.475Z,20.6
2022-08-01T06:42:07.613Z,20.6
2022-08-01T06:45:19.759Z,20.6
2022-08-01T06:48:31.923Z,20.6
2022-08-01T06:51:44.066Z,20.7
2022-08-01T06:54:56.210Z,20.7
2022-08-01T06:58:08.372Z,20.8
2022-08-01T07:01:20.525Z,20.8
2022-08-01T07:04:32.672Z,20.8
2022-08-01T07:07:44.805Z,20.8
2022-08-01T07:10:56.962Z,20.8
2022-08-01T07:14:09.110Z,20.8
2022-08-01T07:17:20.287Z,20.8
2022-08-01T07:20:32.421Z,20.8
2022-08-01T07:23:44.584Z,20.8
2022-08-01T07:26:56.728Z,20.8
2022-08-01T07:30:08.888Z,20.9
2022-08-01T07:33:21.028Z,20.9
2022-08-01T07:36:33.181Z,21
2022-08-01T07:39:44.359Z,21
2022-08-01T07:42:55.516Z,21.1
2022-08-01T07:46:07.668Z,21.1
2022-08-01T07:49:19.817Z,21
2022-08-01T07:52:31.964Z,21
2022-08-01T07:55:44.119Z,20.9
2022-08-01T07:58:56.262Z,20.9
2022-08-01T08:02:08.432Z,21
2022-08-01T08:05:20.571Z,20.9
2022-08-01T08:08:32.720Z,20.9
2022-08-01T08:11:44.868Z,20.9
2022-08-01T08:14:57.015Z,20.9
2022-08-01T08:18:09.166Z,21
2022-08-01T08:21:21.326Z,21.1
2022-08-01T08:24:32.488Z,21.1
2022-08-01T08:27:44.637Z,21.2
2022-08-01T08:30:56.781Z,21.2
2022-08-01T08:34:08.942Z,21.3
2022-08-01T08:37:21.087Z,21.3
2022-08-01T08:40:33.243Z,21.3
2022-08-01T08:43:45.381Z,21.3
2022-08-01T08:46:56.571Z,21.3
2022-08-01T08:50:07.723Z,21.3
2022-08-01T08:53:18.921Z,21.4
2022-08-01T08:56:30.084Z,21.4
2022-08-01T08:59:41.269Z,21.4
2022-08-01T09:02:52.433Z,21.3
2022-08-01T09:06:04.582Z,21.3
2022-08-01T09:09:16.722Z,21.3
2022-08-01T09:12:28.881Z,21.3
2022-08-01T09:15:41.033Z,21.2
2022-08-01T09:18:53.186Z,21.2
2022-08-01T09:22:05.321Z,21.2
2022-08-01T09:25:17.485Z,21.3
2022-08-01T09:28:29.626Z,21.3
2022-08-01T09:31:41.784Z,21.4
2022-08-01T09:34:53.926Z,21.5
2022-08-01T09:38:06.078Z,21.5
2022-08-01T09:41:18.232Z,21.6
2022-08-01T09:44:29.386Z,21.6
2022-08-01T09:47:41.548Z,21.5
2022-08-01T09:50:53.694Z,21.5
2022-08-01T09:54:05.844Z,21.5
2022-08-01T09:57:17.993Z,21.5
2022-08-01T10:00:30.155Z,21.4
2022-08-01T10:03:42.301Z,21.4
2022-08-01T10:06:53.484Z,21.5
2022-08-01T10:10:04.648Z,21.5
2022-08-01T10:13:15.817Z,21.6
2022-08-01T10:16:26.991Z,21.5
2022-08-01T10:19:38.161Z,21.6
2022-08-01T10:22:49.321Z,21.5
2022-08-01T10:26:01.473Z,21.5
2022-08-01T10:29:13.633Z,21.5
2022-08-01T10:32:25.786Z,21.6
2022-08-01T10:35:37.927Z,21.6
2022-08-01T10:38:50.070Z,21.6
2022-08-01T10:42:02.221Z,21.6
2022-08-01T10:45:14.371Z,21.7
2022-08-01T10:48:26.529Z,21.7
2022-08-01T10:51:38.688Z,21.8
2022-08-01T10:54:50.837Z,21.9
2022-08-01T10:58:02.983Z,21.9
2022-08-01T11:01:15.134Z,21.9
2022-08-01T11:04:26.299Z,22
2022-08-01T11:07:38.445Z,22
2022-08-01T11:10:50.608Z,22
2022-08-01T11:14:02.744Z,22
2022-08-01T11:17:14.896Z,22
2022-08-01T11:20:27.057Z,22
2022-08-01T11:23:39.197Z,22
2022-08-01T11:26:50.387Z,22
2022-08-01T11:30:01.554Z,22
2022-08-01T11:33:13.699Z,22
2022-08-01T11:36:25.842Z,22
2022-08-01T11:39:37.998Z,22
2022-08-01T11:42:50.155Z,22
2022-08-01T11:46:02.289Z,22
2022-08-01T11:49:14.441Z,22
2022-08-01T11:52:26.605Z,22
2022-08-01T11:55:38.745Z,22.1
2022-08-01T11:58:50.896Z,22.1
2022-08-01T12:02:03.048Z,22.2
2022-08-01T12:05:15.194Z,22.2
2022-08-01T12:08:27.359Z,22.3
2022-08-01T12:11:38.524Z,22.3
2022-08-01T12:14:50.659Z,22.2
2022-08-01T12:18:02.808Z,22.3
2022-08-01T12:21:14.971Z,22.3
2022-08-01T12:24:27.114Z,22.3
2022-08-01T12:27:39.270Z,22.4
2022-08-01T12:30:51.409Z,22.4
2022-08-01T12:34:02.590Z,22.5
2022-08-01T12:37:13.768Z,22.5
2022-08-01T12:40:24.934Z,22.6
2022-08-01T12:43:36.114Z,22.6
2022-08-01T12:46:47.292Z,22.7
2022-08-01T12:49:58.452Z,22.8
2022-08-01T12:53:10.607Z,22.8
2022-08-01T12:56:22.744Z,22.8
2022-08-01T12:59:34.907Z,22.8
2022-08-01T13:02:47.045Z,22.8
2022-08-01T13:05:59.204Z,22.8
2022-08-01T13:09:11.353Z,22.8
2022-08-01T13:12:23.532Z,22.8
2022-08-01T13:15:35.679Z,22.8
2022-08-01T13:18:47.841Z,22.9
2022-08-01T13:21:59.990Z,23.1
2022-08-01T13:25:12.125Z,23.2
2022-08-01T13:28:24.278Z,23.3
2022-08-01T13:31:35.445Z,23.4
2022-08-01T13:34:47.597Z,23.6
2022-08-01T13:37:59.750Z,23.8
2022-08-01T13:41:11.901Z,24
2022-08-01T13:44:24.059Z,24.1
2022-08-01T13:47:36.199Z,23.9
2022-08-01T13:50:48.344Z,23.8
2022-08-01T13:53:59.531Z,23.9
2022-08-01T13:57:10.702Z,23.8
2022-08-01T14:00:22.839Z,23.7
2022-08-01T14:03:35.000Z,23.6
2022-08-01T14:06:47.146Z,23.7
2022-08-01T14:09:59.303Z,23.7
2022-08-01T14:13:11.451Z,23.7
2022-08-01T14:16:23.612Z,23.8
2022-08-01T14:19:35.750Z,23.8
2022-08-01T14:22:47.897Z,23.9
2022-08-01T14:26:00.066Z,23.9
2022-08-01T14:29:12.217Z,24.1
2022-08-01T14:32:24.354Z,24.2
2022-08-01T14:35:36.510Z,24.3
2022-08-01T14:38:47.682Z,24.3
2022-08-01T14:41:59.827Z,24.3
2022-08-01T14:45:11.980Z,24.3
2022-08-01T14:48:24.141Z,24.2
2022-08-01T14:51:36.295Z,24.1
2022-08-01T14:54:48.448Z,24.1
2022-08-01T14:58:00.595Z,24
2022-08-01T15:01:11.761Z,23.9
2022-08-01T15:04:22.936Z,23.8
2022-08-01T15:07:34.109Z,23.9
2022-08-01T15:10:45.284Z,23.9
2022-08-01T15:13:56.453Z,23.9
2022-08-01T15:17:07.636Z,23.9
2022-08-01T15:20:19.786Z,23.9
2022-08-01T15:23:31.942Z,23.8
2022-08-01T15:26:44.081Z,23.8
2022-08-01T15:29:56.245Z,23.8
2022-08-01T15:33:08.396Z,23.8
2022-08-01T15:36:20.539Z,23.8
2022-08-01T15:39:32.690Z,23.8
2022-08-01T15:42:44.837Z,23.8
2022-08-01T15:45:56.994Z,23.8
2022-08-01T15:49:09.151Z,23.9
2022-08-01T15:52:21.298Z,23.9
2022-08-01T15:55:33.441Z,23.9
2022-08-01T15:58:44.610Z,23.9
2022-08-01T16:01:56.768Z,23.9
2022-08-01T16:05:08.921Z,23.9
2022-08-01T16:08:21.072Z,23.9
2022-08-01T16:11:33.220Z,23.9
2022-08-01T16:14:45.374Z,23.9
2022-08-01T16:17:57.529Z,23.8
2022-08-01T16:21:08.696Z,23.9
2022-08-01T16:24:19.877Z,23.9
2022-08-01T16:27:32.027Z,23.9
2022-08-01T16:30:44.168Z,23.9
2022-08-01T16:33:56.334Z,23.9
2022-08-01T16:37:08.487Z,23.9
2022-08-01T16:40:20.639Z,24
2022-08-01T16:43:32.789Z,23.9
2022-08-01T16:46:44.924Z,24
2022-08-01T16:49:57.093Z,24
2022-08-01T16:53:09.237Z,24
2022-08-01T16:56:21.384Z,24
2022-08-01T16:59:33.543Z,23.9
2022-08-01T17:02:45.700Z,23.9
2022-08-01T17:05:56.862Z,23.9
2022-08-01T17:09:09.004Z,23.9
2022-08-01T17:12:21.158Z,23.8
2022-08-01T17:15:33.318Z,23.8
2022-08-01T17:18:45.459Z,23.8
2022-08-01T17:21:57.616Z,23.7
2022-08-01T17:25:09.780Z,23.7
2022-08-01T17:28:20.960Z,23.7
2022-08-01T17:31:32.117Z,23.7
2022-08-01T17:34:44.270Z,23.7
2022-08-01T17:37:56.422Z,23.7
2022-08-01T17:41:08.566Z,23.7
2022-08-01T17:44:20.721Z,23.7
2022-08-01T17:47:32.883Z,23.6
2022-08-01T17:50:45.029Z,23.6
2022-08-01T17:53:57.185Z,23.6
2022-08-01T17:57:09.338Z,23.6
2022-08-01T18:00:21.489Z,23.5
2022-08-01T18:03:33.628Z,23.5
2022-08-01T18:06:45.777Z,23.5
2022-08-01T18:09:57.931Z,23.5
2022-08-01T18:13:09.108Z,23.5
2022-08-01T18:16:21.257Z,23.5
2022-08-01T18:19:33.407Z,23.4
2022-08-01T18:22:45.565Z,23.4
2022-08-01T18:25:57.711Z,23.4
2022-08-01T18:29:09.852Z,23.4
2022-08-01T18:32:22.017Z,23.3
2022-08-01T18:35:33.187Z,23.3
2022-08-01T18:38:44.359Z,23.2
2022-08-01T18:41:55.548Z,23.2
2022-08-01T18:45:06.705Z,23.2
2022-08-01T18:48:18.852Z,23.2
2022-08-01T18:51:31.017Z,23.1
2022-08-01T18:54:43.157Z,23.1
2022-08-01T18:57:55.305Z,23.1
2022-08-01T19:01:07.457Z,23
2022-08-01T19:04:19.606Z,22.9
2022-08-01T19:07:31.777Z,22.9
2022-08-01T19:10:43.929Z,22.9
2022-08-01T19:13:56.066Z,22.8
2022-08-01T19:17:08.214Z,22.8
2022-08-01T19:20:20.370Z,22.7
2022-08-01T19:23:32.518Z,22.6
2022-08-01T19:26:43.694Z,22.5
2022-08-01T19:29:55.838Z,22.4
2022-08-01T19:33:07.992Z,22.3
2022-08-01T19:36:19.179Z,22.2
2022-08-01T19:39:31.312Z,22.2
2022-08-01T19:42:43.465Z,22.1
2022-08-01T19:45:55.620Z,22.1
2022-08-01T19:49:06.803Z,22.2
2022-08-01T19:52:17.969Z,22.2
2022-08-01T19:55:29.149Z,22.2
2022-08-01T19:58:40.319Z,22.2
2022-08-01T20:01:52.479Z,22.2
2022-08-01T20:05:04.623Z,22.2
2022-08-01T20:08:16.767Z,22.1
2022-08-01T20:11:28.916Z,22
2022-08-01T20:14:41.084Z,21.9
2022-08-01T20:17:53.231Z,21.9
2022-08-01T20:21:05.384Z,21.8
2022-08-01T20:24:17.539Z,21.7
2022-08-01T20:27:29.682Z,21.7
2022-08-01T20:30:41.845Z,21.7
2022-08-01T20:33:53.980Z,21.7
2022-08-01T20:37:06.140Z,21.7
2022-08-01T20:40:17.310Z,21.8
2022-08-01T20:43:29.458Z,21.8
2022-08-01T20:46:41.605Z,21.9
2022-08-01T20:49:53.756Z,21.8
2022-08-01T20:53:05.919Z,21.8
2022-08-01T20:56:18.073Z,21.8
2022-08-01T20:59:30.209Z,21.8
2022-08-01T21:02:41.400Z,21.8
2022-08-01T21:05:52.572Z,21.8
2022-08-01T21:09:03.753Z,21.7
2022-08-01T21:12:14.904Z,21.7
2022-08-01T21:15:27.064Z,21.6
2022-08-01T21:18:39.221Z,21.5
2022-08-01T21:21:51.359Z,21.5
2022-08-01T21:25:03.517Z,21.5
2022-08-01T21:28:15.659Z,21.4
2022-08-01T21:31:27.816Z,21.3
2022-08-01T21:34:39.976Z,21.2
2022-08-01T21:37:52.129Z,21.2
2022-08-01T21:41:04.277Z,21.1
2022-08-01T21:44:16.430Z,21.1
2022-08-01T21:47:28.586Z,21
2022-08-01T21:50:40.739Z,21
2022-08-01T21:53:51.896Z,21
2022-08-01T21:57:04.049Z,21
2022-08-01T22:00:16.198Z,21.1
2022-08-01T22:03:28.357Z,21.1
2022-08-01T22:06:40.507Z,21.1
2022-08-01T22:09:52.660Z,21.1
2022-08-01T22:13:04.807Z,21.1
2022-08-01T22:16:15.994Z,21.1
2022-08-01T22:19:27.141Z,21.1
2022-08-01T22:22:38.333Z,21
2022-08-01T22:25:49.503Z,21
2022-08-01T22:29:01.639Z,21
2022-08-01T22:32:13.799Z,21
2022-08-01T22:35:25.943Z,21
2022-08-01T22:38:38.103Z,21
2022-08-01T22:41:50.243Z,21
2022-08-01T22:45:02.414Z,21
2022-08-01T22:48:14.562Z,21
2022-08-01T22:51:26.704Z,21
2022-08-01T22:54:38.857Z,21
2022-08-01T22:57:51.006Z,20.9
2022-08-01T23:01:03.168Z,20.9
2022-08-01T23:04:15.313Z,20.9
2022-08-01T23:07:26.485Z,20.8
2022-08-01T23:10:38.624Z,20.8
2022-08-01T23:13:50.779Z,20.8
2022-08-01T23:17:02.942Z,20.8
2022-08-01T23:20:15.093Z,20.8
2022-08-01T23:23:27.248Z,20.8
2022-08-01T23:26:39.386Z,20.7
2022-08-01T23:29:50.562Z,20.6
2022-08-01T23:33:01.731Z,20.6
2022-08-01T23:36:12.910Z,20.6
2022-08-01T23:39:24.078Z,20.6
2022-08-01T23:42:35.246Z,20.6
2022-08-01T23:45:46.419Z,20.5
2022-08-01T23:48:58.572Z,20.5
2022-08-01T23:52:10.729Z,20.5
2022-08-01T23:55:22.875Z,20.5
2022-08-01T23:58:35.019Z,20.4
